createdAt,value
2022-10-15T00:01:51.222Z,99885.66
2022-10-15T00:04:20.980Z,99887.66
2022-10-15T00:06:50.576Z,99883.66
2022-10-15T00:09:18.856Z,99820.50
2022-10-15T00:11:47.506Z,99886.00
2022-10-15T00:14:16.276Z,99878.28
2022-10-15T00:16:44.660Z,99878.94
2022-10-15T00:19:13.166Z,99878.94
2022-10-15T00:21:43.732Z,99829.91
2022-10-15T00:24:12.056Z,99868.88
2022-10-15T00:26:40.726Z,99868.88
2022-10-15T00:29:09.187Z,99866.19
2022-10-15T00:31:37.530Z,99839.28
2022-10-15T00:34:05.631Z,99860.81
2022-10-15T00:36:36.190Z,99841.00
2022-10-15T00:39:09.322Z,99813.78
2022-10-15T00:41:41.773Z,99862.81
2022-10-15T00:44:48.079Z,99847.72
2022-10-15T00:47:20.219Z,99847.03
2022-10-15T00:49:53.404Z,99841.66
2022-10-15T00:52:27.657Z,99839.34
2022-10-15T00:55:06.945Z,99832.94
2022-10-15T00:57:36.135Z,99837.97
2022-10-15T01:00:11.112Z,99832.59
2022-10-15T01:02:39.258Z,99824.53
2022-10-15T01:05:10.531Z,99826.38
2022-10-15T01:07:39.470Z,99821.84
2022-10-15T01:10:11.551Z,99825.19
2022-10-15T01:12:59.143Z,99812.13
2022-10-15T01:15:31.613Z,99811.75
2022-10-15T01:18:05.082Z,99818.16
2022-10-15T01:20:59.761Z,99813.63
2022-10-15T01:23:52.280Z,99793.00
2022-10-15T01:27:00.112Z,99791.63
2022-10-15T01:29:48.687Z,99791.28
2022-10-15T01:32:25.298Z,99784.25
2022-10-15T01:34:57.734Z,99781.56
2022-10-15T01:37:32.962Z,99778.88
2022-10-15T01:40:07.587Z,99784.25
2022-10-15T01:42:46.162Z,99779.88
2022-10-15T01:45:21.978Z,99778.88
2022-10-15T01:47:55.837Z,99746.66
2022-10-15T01:50:27.784Z,99765.44
2022-10-15T01:52:58.298Z,99755.69
2022-10-15T01:55:27.911Z,99766.44
2022-10-15T01:58:02.318Z,99738.88
2022-10-15T02:00:32.641Z,99757.38
2022-10-15T02:03:03.494Z,99708.72
2022-10-15T02:05:38.549Z,99741.25
2022-10-15T02:08:16.459Z,99726.81
2022-10-15T02:10:55.542Z,99741.25
2022-10-15T02:13:28.723Z,99734.19
2022-10-15T02:16:08.523Z,99723.44
2022-10-15T02:18:44.063Z,99718.06
2022-10-15T02:21:16.212Z,99711.88
2022-10-15T02:23:50.559Z,99709.03
2022-10-15T02:26:19.927Z,99700.13
2022-10-15T02:28:54.323Z,99709.03
2022-10-15T02:31:26.780Z,99696.59
2022-10-15T02:34:02.501Z,99698.28
2022-10-15T02:36:31.518Z,99691.22
2022-10-15T02:39:01.741Z,99692.06
2022-10-15T02:41:31.780Z,99692.91
2022-10-15T02:43:59.947Z,99692.91
2022-10-15T02:46:29.181Z,99682.16
2022-10-15T02:49:01.540Z,99683.84
2022-10-15T02:51:36.355Z,99678.47
2022-10-15T02:54:06.615Z,99644.59
2022-10-15T02:56:36.033Z,99646.94
2022-10-15T02:59:06.059Z,99674.75
2022-10-15T03:01:34.447Z,99671.41
2022-10-15T03:04:03.989Z,99641.22
2022-10-15T03:06:33.224Z,99660.69
2022-10-15T03:09:01.377Z,99628.31
2022-10-15T03:11:30.046Z,99666.03
2022-10-15T03:13:58.336Z,99659.34
2022-10-15T03:16:26.583Z,99651.59
2022-10-15T03:18:54.744Z,99640.84
2022-10-15T03:21:24.919Z,99640.84
2022-10-15T03:23:53.442Z,99622.75
2022-10-15T03:26:21.699Z,99640.00
2022-10-15T03:28:50.502Z,99638.03
2022-10-15T03:31:19.062Z,99639.19
2022-10-15T03:33:47.751Z,99611.16
2022-10-15T03:36:16.001Z,99600.25
2022-10-15T03:38:46.888Z,99615.03
2022-10-15T03:41:15.690Z,99620.72
2022-10-15T03:43:43.903Z,99637.47
2022-10-15T03:46:12.098Z,99632.09
2022-10-15T03:48:40.513Z,99623.06
2022-10-15T03:51:09.516Z,99624.06
2022-10-15T03:53:37.651Z,99612.31
2022-10-15T03:56:08.243Z,99595.22
2022-10-15T03:58:36.550Z,99620.19
2022-10-15T04:01:10.854Z,99617.69
2022-10-15T04:03:39.682Z,99612.31
2022-10-15T04:06:09.973Z,99605.97
2022-10-15T04:08:38.173Z,99621.03
2022-10-15T04:11:07.822Z,99619.00
2022-10-15T04:13:36.435Z,99611.63
2022-10-15T04:16:06.211Z,99570.38
2022-10-15T04:18:34.722Z,99587.25
2022-10-15T04:21:03.548Z,99584.41
2022-10-15T04:23:31.594Z,99582.72
2022-10-15T04:26:01.429Z,99540.66
2022-10-15T04:28:31.031Z,99580.34
2022-10-15T04:30:59.384Z,99586.56
2022-10-15T04:33:28.302Z,99564.31
2022-10-15T04:36:01.731Z,99579.31
2022-10-15T04:38:30.001Z,99580.34
2022-10-15T04:41:03.592Z,99592.75
2022-10-15T04:43:33.629Z,99531.78
2022-10-15T04:46:03.576Z,99573.94
2022-10-15T04:48:33.148Z,99561.91
2022-10-15T04:51:05.303Z,99586.75
2022-10-15T04:53:33.606Z,99578.00
2022-10-15T04:56:03.712Z,99579.38
2022-10-15T04:58:34.408Z,99571.16
2022-10-15T05:01:03.566Z,99573.16
2022-10-15T05:06:03.000Z,99566.94
2022-10-15T05:08:32.026Z,99569.81
2022-10-15T05:11:02.135Z,99572.31
2022-10-15T05:13:30.779Z,99578.88
2022-10-15T05:16:10.618Z,99575.34
2022-10-15T05:18:39.677Z,99571.00
2022-10-15T05:21:08.279Z,99567.28
2022-10-15T05:23:37.104Z,99576.03
2022-10-15T05:26:07.147Z,99567.97
2022-10-15T05:28:35.333Z,99521.25
2022-10-15T05:31:10.977Z,99563.97
2022-10-15T05:33:40.856Z,99583.06
2022-10-15T05:36:13.503Z,99578.72
2022-10-15T05:38:41.829Z,99578.03
2022-10-15T05:41:09.896Z,99566.31
2022-10-15T05:43:40.477Z,99572.50
2022-10-15T05:46:11.148Z,99578.03
2022-10-15T05:48:39.584Z,99585.91
2022-10-15T05:51:10.059Z,99579.72
2022-10-15T05:53:39.347Z,99585.91
2022-10-15T05:56:08.510Z,99576.03
2022-10-15T05:58:37.843Z,99569.69
2022-10-15T06:01:07.794Z,99553.56
2022-10-15T06:03:37.656Z,99583.41
2022-10-15T06:06:06.199Z,99583.41
2022-10-15T06:08:34.666Z,99585.44
2022-10-15T06:11:09.298Z,99590.47
2022-10-15T06:13:39.496Z,99567.81
2022-10-15T06:16:08.104Z,99595.16
2022-10-15T06:18:39.080Z,99582.72
2022-10-15T06:21:08.117Z,99589.44
2022-10-15T06:23:36.333Z,99603.50
2022-10-15T06:26:05.249Z,99603.84
2022-10-15T06:28:33.643Z,99607.56
2022-10-15T06:31:02.166Z,99604.88
2022-10-15T06:33:30.829Z,99605.91
2022-10-15T06:36:04.153Z,99605.91
2022-10-15T06:38:32.540Z,99610.41
2022-10-15T06:41:00.760Z,99604.19
2022-10-15T06:43:31.128Z,99605.22
2022-10-15T06:46:01.024Z,99584.81
2022-10-15T06:48:29.184Z,99614.47
2022-10-15T06:51:00.045Z,99604.09
2022-10-15T06:53:30.328Z,99620.03
2022-10-15T06:55:59.256Z,99624.38
2022-10-15T06:58:27.581Z,99624.38
2022-10-15T07:01:01.607Z,99621.03
2022-10-15T07:03:29.900Z,99625.91
2022-10-15T07:05:57.975Z,99633.47
2022-10-15T07:08:26.853Z,99633.47
2022-10-15T07:10:56.435Z,99635.47
2022-10-15T07:13:26.307Z,99624.72
2022-10-15T07:15:56.167Z,99604.31
2022-10-15T07:18:25.195Z,99639.53
2022-10-15T07:20:53.274Z,99571.16
2022-10-15T07:23:27.103Z,99639.19
2022-10-15T07:25:58.749Z,99644.56
2022-10-15T07:28:27.534Z,99637.19
2022-10-15T07:30:56.135Z,99649.94
2022-10-15T07:33:25.852Z,99610.38
2022-10-15T07:35:54.970Z,99663.53
2022-10-15T07:38:23.349Z,99665.19
2022-10-15T07:40:51.463Z,99649.78
2022-10-15T07:43:21.406Z,99666.03
2022-10-15T07:45:50.743Z,99673.94
2022-10-15T07:48:19.022Z,99673.09
2022-10-15T07:50:48.635Z,99667.72
2022-10-15T07:53:18.175Z,99668.06
2022-10-15T07:55:50.333Z,99672.41
2022-10-15T07:58:20.599Z,99667.22
2022-10-15T08:00:49.153Z,99630.19
2022-10-15T08:03:18.837Z,99678.81
2022-10-15T08:05:47.089Z,99676.97
2022-10-15T08:08:15.283Z,99685.03
2022-10-15T08:10:43.497Z,99684.16
2022-10-15T08:13:11.582Z,99677.47
2022-10-15T08:15:45.968Z,99687.53
2022-10-15T08:18:14.703Z,99690.22
2022-10-15T08:20:42.860Z,99669.91
2022-10-15T08:23:17.384Z,99692.91
2022-10-15T08:25:45.643Z,99686.69
2022-10-15T08:28:15.524Z,99689.53
2022-10-15T08:30:45.587Z,99681.19
2022-10-15T08:33:14.762Z,99694.44
2022-10-15T08:35:43.855Z,99607.13
2022-10-15T08:38:14.834Z,99700.28
2022-10-15T08:40:51.223Z,99651.16
2022-10-15T08:43:23.770Z,99713.06
2022-10-15T08:45:59.094Z,99702.69
2022-10-15T08:48:31.853Z,99691.91
2022-10-15T08:51:04.971Z,99710.19
2022-10-15T08:53:39.763Z,99708.69
2022-10-15T08:56:17.008Z,99720.47
2022-10-15T08:58:52.317Z,99727.50
2022-10-15T09:01:29.794Z,99732.19
2022-10-15T09:04:15.481Z,99703.00
2022-10-15T09:06:44.753Z,99728.53
2022-10-15T09:09:23.254Z,99683.84
2022-10-15T09:12:01.647Z,99705.00
2022-10-15T09:14:35.335Z,99715.75
2022-10-15T09:17:11.340Z,99714.41
2022-10-15T09:19:42.399Z,99727.84
2022-10-15T09:22:16.679Z,99700.31
2022-10-15T09:24:45.050Z,99722.47
2022-10-15T09:27:26.898Z,99711.72
2022-10-15T09:30:04.583Z,99734.19
2022-10-15T09:32:38.710Z,99718.06
2022-10-15T09:35:20.317Z,99723.44
2022-10-15T09:37:57.040Z,99723.28
2022-10-15T09:40:45.614Z,99718.44
2022-10-15T09:43:25.910Z,99727.84
2022-10-15T09:45:54.414Z,99737.91
2022-10-15T09:48:28.912Z,99733.72
2022-10-15T09:51:01.491Z,99741.59
2022-10-15T09:53:46.004Z,99748.66
2022-10-15T09:56:19.583Z,99734.38
2022-10-15T09:58:53.686Z,99736.22
2022-10-15T10:01:23.523Z,99745.47
2022-10-15T10:04:11.562Z,99749.84
2022-10-15T10:06:46.552Z,99749.00
2022-10-15T10:09:20.440Z,99710.06
2022-10-15T10:11:52.791Z,99690.28
2022-10-15T10:14:28.105Z,99713.75
2022-10-15T10:17:21.049Z,99757.72
2022-10-15T10:20:14.201Z,99766.59
2022-10-15T10:22:51.189Z,99764.75
2022-10-15T10:25:45.296Z,99752.34
2022-10-15T10:28:22.929Z,99761.91
2022-10-15T10:31:07.490Z,99762.06
2022-10-15T10:33:41.098Z,99751.34
2022-10-15T10:36:22.563Z,99769.13
2022-10-15T10:39:04.106Z,99771.00
2022-10-15T10:41:56.352Z,99765.78
2022-10-15T10:44:32.004Z,99769.28
2022-10-15T10:47:10.976Z,99768.47
2022-10-15T10:49:42.708Z,99760.06
2022-10-15T10:52:25.690Z,99773.84
2022-10-15T10:55:02.257Z,99756.72
2022-10-15T10:57:43.284Z,99760.72
2022-10-15T11:00:17.414Z,99774.19
2022-10-15T11:02:45.933Z,99782.94
2022-10-15T11:05:18.243Z,99742.63
2022-10-15T11:08:01.489Z,99774.19
2022-10-15T11:10:35.332Z,99781.22
2022-10-15T11:13:30.477Z,99737.94
2022-10-15T11:16:05.623Z,99762.75
2022-10-15T11:18:52.387Z,99784.94
2022-10-15T11:21:29.260Z,99779.56
2022-10-15T11:24:14.344Z,99757.06
2022-10-15T11:27:09.869Z,99781.22
2022-10-15T11:29:48.921Z,99777.56
2022-10-15T11:32:28.429Z,99784.59
2022-10-15T11:35:41.047Z,99786.25
2022-10-15T11:38:23.039Z,99796.16
2022-10-15T11:41:12.605Z,99762.75
2022-10-15T11:43:57.139Z,99789.97
2022-10-15T11:46:34.289Z,99790.78
2022-10-15T11:49:19.934Z,99780.19
2022-10-15T11:52:06.812Z,99795.69
2022-10-15T11:54:40.858Z,99760.41
2022-10-15T11:57:15.980Z,99788.63
2022-10-15T11:59:49.886Z,99791.63
2022-10-15T12:02:24.053Z,99796.16
2022-10-15T12:04:56.068Z,99790.78
2022-10-15T12:07:29.319Z,99789.97
2022-10-15T12:10:06.374Z,99789.97
2022-10-15T12:12:45.386Z,99789.97
2022-10-15T12:15:25.659Z,99779.56
2022-10-15T12:17:59.963Z,99748.00
2022-10-15T12:20:29.629Z,99774.66
2022-10-15T12:23:00.725Z,99765.75
2022-10-15T12:25:44.576Z,99726.69
2022-10-15T12:28:19.159Z,99790.78
2022-10-15T12:31:01.604Z,99780.88
2022-10-15T12:33:46.780Z,99784.94
2022-10-15T12:36:28.322Z,99788.28
2022-10-15T12:39:03.145Z,99789.13
2022-10-15T12:41:39.700Z,99758.06
2022-10-15T12:44:19.006Z,99789.28
2022-10-15T12:46:47.536Z,99788.28
2022-10-15T12:49:58.114Z,99786.59
2022-10-15T12:52:55.549Z,99783.25
2022-10-15T12:55:28.035Z,99777.88
2022-10-15T12:57:58.892Z,99766.28
2022-10-15T13:00:45.181Z,99763.44
2022-10-15T13:03:36.449Z,99760.75
2022-10-15T13:06:33.436Z,99767.78
2022-10-15T13:09:19.335Z,99769.16
2022-10-15T13:14:36.271Z,99739.91
2022-10-15T13:17:14.851Z,99729.84
2022-10-15T13:19:49.344Z,99771.16
2022-10-15T13:22:25.595Z,99750.50
2022-10-15T13:24:55.795Z,99729.84
2022-10-15T13:27:26.211Z,99761.44
2022-10-15T13:30:00.321Z,99723.81
2022-10-15T13:32:32.901Z,99758.53
2022-10-15T13:35:02.315Z,99770.47
2022-10-15T13:37:33.546Z,99767.63
2022-10-15T13:40:07.583Z,99761.44
2022-10-15T13:42:36.949Z,99746.66
2022-10-15T13:45:16.634Z,99760.75
2022-10-15T13:47:49.742Z,99762.59
2022-10-15T13:50:23.920Z,99716.13
2022-10-15T13:52:55.397Z,99706.19
2022-10-15T13:55:26.088Z,99756.06
2022-10-15T13:57:59.040Z,99745.31
2022-10-15T14:00:30.454Z,99744.63
2022-10-15T14:03:22.275Z,99738.25
2022-10-15T14:05:51.920Z,99737.91
2022-10-15T14:08:26.212Z,99736.22
2022-10-15T14:10:58.282Z,99737.91
2022-10-15T14:13:26.574Z,99740.59
2022-10-15T14:16:00.768Z,99735.03
2022-10-15T14:18:36.438Z,99721.13
2022-10-15T14:21:05.399Z,99728.81
2022-10-15T14:23:33.657Z,99732.19
2022-10-15T14:26:04.153Z,99732.19
2022-10-15T14:28:35.294Z,99728.47
2022-10-15T14:31:04.308Z,99698.97
2022-10-15T14:33:40.833Z,99724.81
2022-10-15T14:36:15.054Z,99723.97
2022-10-15T14:38:43.388Z,99727.66
2022-10-15T14:41:28.251Z,99726.81
2022-10-15T14:44:08.517Z,99732.19
2022-10-15T14:46:41.444Z,99726.81
2022-10-15T14:49:33.014Z,99721.44
2022-10-15T14:52:06.175Z,99720.75
2022-10-15T14:54:42.436Z,99719.78
2022-10-15T14:57:19.236Z,99727.16
2022-10-15T14:59:47.855Z,99709.19
2022-10-15T15:02:17.784Z,99726.81
2022-10-15T15:04:55.021Z,99710.06
2022-10-15T15:07:23.551Z,99727.16
2022-10-15T15:09:52.561Z,99723.44
2022-10-15T15:12:27.683Z,99720.75
2022-10-15T15:14:56.588Z,99657.22
2022-10-15T15:17:26.308Z,99735.03
2022-10-15T15:19:57.475Z,99734.19
2022-10-15T15:22:31.379Z,99685.22
2022-10-15T15:25:02.571Z,99734.91
2022-10-15T15:27:37.162Z,99734.19
2022-10-15T15:30:18.933Z,99723.44
2022-10-15T15:32:48.104Z,99728.81
2022-10-15T15:35:24.547Z,99721.63
2022-10-15T15:37:53.029Z,99717.25
2022-10-15T15:40:21.546Z,99718.06
2022-10-15T15:42:50.804Z,99705.34
2022-10-15T15:45:22.171Z,99719.78
2022-10-15T15:47:50.902Z,99723.28
2022-10-15T15:50:22.813Z,99712.69
2022-10-15T15:52:50.911Z,99700.97
2022-10-15T15:55:27.488Z,99716.06
2022-10-15T15:57:55.724Z,99703.66
2022-10-15T16:00:24.310Z,99704.66
2022-10-15T16:02:57.965Z,99636.59
2022-10-15T16:05:27.946Z,99695.59
2022-10-15T16:07:56.093Z,99705.66
2022-10-15T16:10:24.884Z,99698.63
2022-10-15T16:12:58.062Z,99659.22
2022-10-15T16:15:26.166Z,99686.00
2022-10-15T16:17:54.457Z,99687.88
2022-10-15T16:20:23.099Z,99669.06
2022-10-15T16:22:53.356Z,99681.50
2022-10-15T16:25:24.192Z,99651.78
2022-10-15T16:27:56.857Z,99662.69
2022-10-15T16:30:24.969Z,99669.06
2022-10-15T16:32:53.719Z,99665.06
2022-10-15T16:35:21.989Z,99667.03
2022-10-15T16:37:52.338Z,99657.31
2022-10-15T16:40:21.912Z,99658.16
2022-10-15T16:42:50.273Z,99658.97
2022-10-15T16:45:18.436Z,99630.97
2022-10-15T16:47:46.547Z,99641.88
2022-10-15T16:50:14.640Z,99633.16
2022-10-15T16:52:42.800Z,99649.59
2022-10-15T16:55:11.333Z,99619.41
2022-10-15T16:57:41.688Z,99644.56
2022-10-15T17:00:11.357Z,99657.31
2022-10-15T17:02:39.569Z,99657.31
2022-10-15T17:05:08.860Z,99656.28
2022-10-15T17:07:37.051Z,99633.69
2022-10-15T17:10:07.456Z,99638.22
2022-10-15T17:12:36.643Z,99584.56
2022-10-15T17:15:07.171Z,99639.53
2022-10-15T17:17:35.244Z,99640.34
2022-10-15T17:20:03.434Z,99636.66
2022-10-15T17:22:31.637Z,99624.09
2022-10-15T17:24:59.708Z,99639.19
2022-10-15T17:27:27.855Z,99637.47
2022-10-15T17:29:55.953Z,99639.34
2022-10-15T17:32:25.899Z,99628.44
2022-10-15T17:34:54.232Z,99631.75
2022-10-15T17:37:22.677Z,99637.97
2022-10-15T17:39:52.152Z,99601.13
2022-10-15T17:42:21.855Z,99627.25
2022-10-15T17:44:57.856Z,99642.50
2022-10-15T17:47:33.740Z,99635.47
2022-10-15T17:50:01.841Z,99646.22
2022-10-15T17:52:29.984Z,99645.38
2022-10-15T17:54:58.218Z,99642.84
2022-10-15T17:57:26.566Z,99637.19
2022-10-15T17:59:54.938Z,99646.56
2022-10-15T18:02:23.086Z,99642.56
2022-10-15T18:04:59.412Z,99648.94
2022-10-15T18:07:27.887Z,99644.91
2022-10-15T18:09:56.209Z,99644.91
2022-10-15T18:12:24.311Z,99644.91
2022-10-15T18:14:52.954Z,99626.78
2022-10-15T18:17:21.192Z,99641.19
2022-10-15T18:19:49.354Z,99596.44
2022-10-15T18:22:22.123Z,99579.19
2022-10-15T18:24:50.228Z,99598.94
2022-10-15T18:27:22.770Z,99636.66
2022-10-15T18:29:51.447Z,99618.72
2022-10-15T18:32:19.723Z,99637.47
2022-10-15T18:34:47.896Z,99622.56
2022-10-15T18:37:19.195Z,99629.59
2022-10-15T18:39:47.254Z,99546.19
2022-10-15T18:42:15.540Z,99623.75
2022-10-15T18:44:43.915Z,99589.69
2022-10-15T18:47:12.152Z,99622.38
2022-10-15T18:49:40.279Z,99620.56
2022-10-15T18:52:21.537Z,99601.97
2022-10-15T18:54:58.119Z,99602.63
2022-10-15T18:57:27.461Z,99612.66
2022-10-15T18:59:56.749Z,99621.75
2022-10-15T19:02:25.211Z,99609.97
2022-10-15T19:04:54.079Z,99554.50
2022-10-15T19:07:22.151Z,99600.25
2022-10-15T19:09:50.283Z,99598.56
2022-10-15T19:12:20.043Z,99580.47
2022-10-15T19:14:48.276Z,99605.63
2022-10-15T19:17:16.429Z,99594.88
2022-10-15T19:19:49.901Z,99612.66
2022-10-15T19:22:18.416Z,99598.22
2022-10-15T19:24:46.584Z,99579.59
2022-10-15T19:27:14.641Z,99589.13
2022-10-15T19:29:44.143Z,99598.22
2022-10-15T19:32:26.989Z,99585.44
2022-10-15T19:34:56.043Z,99551.94
2022-10-15T19:37:24.438Z,99569.03
2022-10-15T19:40:10.772Z,99519.28
2022-10-15T19:42:38.893Z,99585.31
2022-10-15T19:45:09.758Z,99601.56
2022-10-15T19:47:38.979Z,99601.56
2022-10-15T19:50:10.149Z,99591.66
2022-10-15T19:52:38.195Z,99603.25
2022-10-15T19:55:14.647Z,99553.66
2022-10-15T19:57:45.408Z,99592.50
2022-10-15T20:00:17.367Z,99594.16
2022-10-15T20:02:49.907Z,99596.19
2022-10-15T20:05:20.303Z,99568.03
2022-10-15T20:07:53.841Z,99594.50
2022-10-15T20:10:26.178Z,99591.81
2022-10-15T20:12:57.570Z,99583.75
2022-10-15T20:15:27.051Z,99590.81
2022-10-15T20:17:59.988Z,99585.44
2022-10-15T20:20:28.128Z,99547.56
2022-10-15T20:22:59.476Z,99576.38
2022-10-15T20:25:27.616Z,99537.53
2022-10-15T20:27:55.649Z,99575.06
2022-10-15T20:30:23.845Z,99579.22
2022-10-15T20:32:53.349Z,99583.75
2022-10-15T20:35:21.599Z,99570.31
2022-10-15T20:37:50.104Z,99544.91
2022-10-15T20:40:18.270Z,99575.88
2022-10-15T20:42:53.493Z,99561.63
2022-10-15T20:45:21.767Z,99571.06
2022-10-15T20:47:54.015Z,99579.41
2022-10-15T20:50:26.340Z,99571.34
2022-10-15T20:52:56.155Z,99570.03
2022-10-15T20:55:24.594Z,99571.34
2022-10-15T20:57:56.252Z,99580.44
2022-10-15T21:00:26.922Z,99543.56
2022-10-15T21:02:56.482Z,99556.94
2022-10-15T21:05:24.632Z,99560.59
2022-10-15T21:07:52.696Z,99561.31
2022-10-15T21:10:20.775Z,99582.09
2022-10-15T21:12:48.876Z,99573.00
2022-10-15T21:15:20.410Z,99585.44
2022-10-15T21:17:48.727Z,99527.81
2022-10-15T21:20:18.460Z,99593.50
2022-10-15T21:22:46.532Z,99574.72
2022-10-15T21:25:14.598Z,99591.81
2022-10-15T21:27:42.771Z,99592.00
2022-10-15T21:30:12.085Z,99594.50
2022-10-15T21:32:40.224Z,99599.88
2022-10-15T21:35:08.897Z,99610.63
2022-10-15T21:37:39.336Z,99603.59
2022-10-15T21:40:08.759Z,99614.34
2022-10-15T21:42:36.812Z,99607.28
2022-10-15T21:45:05.272Z,99598.22
2022-10-15T21:47:33.685Z,99604.59
2022-10-15T21:50:01.742Z,99577.13
2022-10-15T21:52:29.919Z,99608.97
2022-10-15T21:54:59.416Z,99607.28
2022-10-15T21:57:27.824Z,99604.44
2022-10-15T21:59:56.407Z,99592.84
2022-10-15T22:02:24.468Z,99593.19
2022-10-15T22:04:52.688Z,99603.59
2022-10-15T22:07:20.720Z,99601.56
2022-10-15T22:09:49.144Z,99605.25
2022-10-15T22:12:21.153Z,99610.63
2022-10-15T22:14:50.043Z,99628.44
2022-10-15T22:17:18.091Z,99617.69
2022-10-15T22:19:46.180Z,99619.34
2022-10-15T22:22:14.385Z,99633.81
2022-10-15T22:24:42.701Z,99633.97
2022-10-15T22:27:10.929Z,99632.09
2022-10-15T22:29:41.234Z,99635.81
2022-10-15T22:32:09.319Z,99634.16
2022-10-15T22:34:37.475Z,99639.53
2022-10-15T22:37:05.491Z,99608.66
2022-10-15T22:39:33.567Z,99625.91
2022-10-15T22:42:01.604Z,99632.09
2022-10-15T22:44:29.784Z,99630.44
2022-10-15T22:46:59.547Z,99627.59
2022-10-15T22:49:27.894Z,99630.78
2022-10-15T22:51:56.010Z,99642.84
2022-10-15T22:54:24.847Z,99640.16
2022-10-15T22:56:53.221Z,99638.22
2022-10-15T22:59:22.119Z,99641.19
2022-10-15T23:01:50.330Z,99646.56
2022-10-15T23:04:19.771Z,99645.53
2022-10-15T23:06:47.886Z,99646.56
2022-10-15T23:09:18.151Z,99645.72
2022-10-15T23:11:47.114Z,99661.84
2022-10-15T23:14:17.352Z,99667.03
2022-10-15T23:16:47.044Z,99669.72
2022-10-15T23:19:17.553Z,99662.69
2022-10-15T23:21:48.470Z,99654.31
2022-10-15T23:24:18.116Z,99624.13
2022-10-15T23:26:46.598Z,99672.56
2022-10-15T23:29:16.638Z,99673.44
2022-10-15T23:31:45.422Z,99673.59
2022-10-15T23:34:16.106Z,99669.41
2022-10-15T23:36:44.833Z,99677.13
2022-10-15T23:39:16.904Z,99668.06
2022-10-15T23:41:45.360Z,99651.97
2022-10-15T23:44:14.157Z,99668.41
2022-10-15T23:46:42.562Z,99677.13
2022-10-15T23:49:10.984Z,99672.78
2022-10-15T23:51:39.714Z,99662.84
2022-10-15T23:54:16.394Z,99666.75
2022-10-15T23:56:45.203Z,99666.75
2022-10-15T23:59:13.268Z,99658.69
